sensor_id;sensor_type;location;lat;lon;timestamp;P1;durP1;ratioP1;P2;durP2;ratioP2
2868;SDS011;1442;47.448;8.582;2024-03-08T00:00:03;54.15;;;25.60;;
2868;SDS011;1442;47.448;8.582;2024-03-08T00:02:34;62.60;;;27.05;;
2868;SDS011;1442;47.448;8.582;2024-03-08T00:05:03;61.60;;;27.10;;
2868;SDS011;1442;47.448;8.582;2024-03-08T00:07:31;53.47;;;26.63;;
2868;SDS011;1442;47.448;8.582;2024-03-08T00:09:57;59.55;;;27.55;;
2868;SDS011;1442;47.448;8.582;2024-03-08T00:12:24;54.58;;;27.27;;
2868;SDS011;1442;47.448;8.582;2024-03-08T00:14:51;56.92;;;28.00;;
2868;SDS011;1442;47.448;8.582;2024-03-08T00:17:19;60.00;;;28.70;;
2868;SDS011;1442;47.448;8.582;2024-03-08T00:19:47;57.28;;;26.92;;
2868;SDS011;1442;47.448;8.582;2024-03-08T00:22:16;55.33;;;26.55;;
2868;SDS011;1442;47.448;8.582;2024-03-08T00:24:42;54.50;;;26.23;;
2868;SDS011;1442;47.448;8.582;2024-03-08T00:27:10;49.28;;;25.23;;
2868;SDS011;1442;47.448;8.582;2024-03-08T00:29:37;57.00;;;27.90;;
2868;SDS011;1442;47.448;8.582;2024-03-08T00:32:05;56.45;;;26.52;;
2868;SDS011;1442;47.448;8.582;2024-03-08T00:34:32;55.38;;;25.98;;
2868;SDS011;1442;47.448;8.582;2024-03-08T00:37:01;64.82;;;28.60;;
2868;SDS011;1442;47.448;8.582;2024-03-08T00:39:29;56.88;;;26.85;;
2868;SDS011;1442;47.448;8.582;2024-03-08T00:41:56;53.13;;;25.83;;
2868;SDS011;1442;47.448;8.582;2024-03-08T00:44:23;53.83;;;27.27;;
2868;SDS011;1442;47.448;8.582;2024-03-08T00:46:49;52.58;;;26.58;;
2868;SDS011;1442;47.448;8.582;2024-03-08T00:49:16;59.53;;;26.02;;
2868;SDS011;1442;47.448;8.582;2024-03-08T00:51:43;58.22;;;26.33;;
2868;SDS011;1442;47.448;8.582;2024-03-08T00:54:10;54.17;;;25.80;;
2868;SDS011;1442;47.448;8.582;2024-03-08T00:56:38;56.90;;;27.60;;
2868;SDS011;1442;47.448;8.582;2024-03-08T00:59:06;56.10;;;26.45;;
2868;SDS011;1442;47.448;8.582;2024-03-08T01:01:33;55.92;;;26.67;;
2868;SDS011;1442;47.448;8.582;2024-03-08T01:03:59;62.83;;;29.30;;
2868;SDS011;1442;47.448;8.582;2024-03-08T01:06:27;59.08;;;28.90;;
2868;SDS011;1442;47.448;8.582;2024-03-08T01:08:53;61.30;;;29.00;;
2868;SDS011;1442;47.448;8.582;2024-03-08T01:11:20;57.00;;;28.73;;
2868;SDS011;1442;47.448;8.582;2024-03-08T01:13:48;59.95;;;27.40;;
2868;SDS011;1442;47.448;8.582;2024-03-08T01:16:15;55.13;;;25.65;;
2868;SDS011;1442;47.448;8.582;2024-03-08T01:18:43;51.15;;;24.67;;
2868;SDS011;1442;47.448;8.582;2024-03-08T01:21:09;58.00;;;27.85;;
2868;SDS011;1442;47.448;8.582;2024-03-08T01:23:36;52.95;;;25.63;;
2868;SDS011;1442;47.448;8.582;2024-03-08T01:26:03;52.67;;;25.75;;
2868;SDS011;1442;47.448;8.582;2024-03-08T01:28:30;56.22;;;25.35;;
2868;SDS011;1442;47.448;8.582;2024-03-08T01:30:58;56.30;;;25.92;;
2868;SDS011;1442;47.448;8.582;2024-03-08T01:33:25;55.50;;;26.40;;
2868;SDS011;1442;47.448;8.582;2024-03-08T01:35:52;52.75;;;25.63;;
2868;SDS011;1442;47.448;8.582;2024-03-08T01:38:19;56.20;;;26.15;;
2868;SDS011;1442;47.448;8.582;2024-03-08T01:40:46;55.63;;;25.95;;
2868;SDS011;1442;47.448;8.582;2024-03-08T01:43:19;55.00;;;25.77;;
2868;SDS011;1442;47.448;8.582;2024-03-08T01:45:47;54.45;;;25.50;;
2868;SDS011;1442;47.448;8.582;2024-03-08T01:48:15;54.05;;;25.42;;
2868;SDS011;1442;47.448;8.582;2024-03-08T01:50:44;55.05;;;25.20;;
2868;SDS011;1442;47.448;8.582;2024-03-08T01:53:11;50.60;;;23.70;;
2868;SDS011;1442;47.448;8.582;2024-03-08T01:55:40;54.95;;;26.88;;
2868;SDS011;1442;47.448;8.582;2024-03-08T01:58:08;51.50;;;23.65;;
2868;SDS011;1442;47.448;8.582;2024-03-08T02:00:36;59.58;;;26.60;;
2868;SDS011;1442;47.448;8.582;2024-03-08T02:03:06;57.33;;;25.95;;
2868;SDS011;1442;47.448;8.582;2024-03-08T02:05:34;60.70;;;25.65;;
2868;SDS011;1442;47.448;8.582;2024-03-08T02:08:03;58.67;;;26.33;;
2868;SDS011;1442;47.448;8.582;2024-03-08T02:10:32;56.80;;;26.25;;
2868;SDS011;1442;47.448;8.582;2024-03-08T02:12:59;53.55;;;26.75;;
2868;SDS011;1442;47.448;8.582;2024-03-08T02:15:26;61.35;;;26.40;;
2868;SDS011;1442;47.448;8.582;2024-03-08T02:18:13;60.58;;;26.80;;
2868;SDS011;1442;47.448;8.582;2024-03-08T02:20:41;55.65;;;25.67;;
2868;SDS011;1442;47.448;8.582;2024-03-08T02:23:08;52.60;;;25.88;;
2868;SDS011;1442;47.448;8.582;2024-03-08T02:25:35;59.28;;;26.45;;
2868;SDS011;1442;47.448;8.582;2024-03-08T02:28:02;58.20;;;27.05;;
2868;SDS011;1442;47.448;8.582;2024-03-08T02:30:29;57.42;;;27.35;;
2868;SDS011;1442;47.448;8.582;2024-03-08T02:32:56;55.53;;;25.85;;
2868;SDS011;1442;47.448;8.582;2024-03-08T02:35:22;60.55;;;27.00;;
2868;SDS011;1442;47.448;8.582;2024-03-08T02:37:50;55.50;;;24.70;;
2868;SDS011;1442;47.448;8.582;2024-03-08T02:40:17;57.30;;;25.52;;
2868;SDS011;1442;47.448;8.582;2024-03-08T02:42:44;56.35;;;25.23;;
2868;SDS011;1442;47.448;8.582;2024-03-08T02:45:10;53.63;;;25.63;;
2868;SDS011;1442;47.448;8.582;2024-03-08T02:47:37;58.40;;;25.63;;
2868;SDS011;1442;47.448;8.582;2024-03-08T02:50:04;57.50;;;26.05;;
2868;SDS011;1442;47.448;8.582;2024-03-08T02:52:33;57.30;;;27.00;;
2868;SDS011;1442;47.448;8.582;2024-03-08T02:55:01;54.80;;;25.20;;
2868;SDS011;1442;47.448;8.582;2024-03-08T02:57:30;61.42;;;26.42;;
2868;SDS011;1442;47.448;8.582;2024-03-08T02:59:57;57.63;;;27.02;;
2868;SDS011;1442;47.448;8.582;2024-03-08T03:02:24;61.85;;;26.35;;
2868;SDS011;1442;47.448;8.582;2024-03-08T03:04:51;58.17;;;27.02;;
2868;SDS011;1442;47.448;8.582;2024-03-08T03:07:18;55.17;;;26.08;;
2868;SDS011;1442;47.448;8.582;2024-03-08T03:09:45;55.90;;;26.50;;
2868;SDS011;1442;47.448;8.582;2024-03-08T03:12:13;66.15;;;27.50;;
2868;SDS011;1442;47.448;8.582;2024-03-08T03:14:40;53.97;;;25.45;;
2868;SDS011;1442;47.448;8.582;2024-03-08T03:17:06;57.05;;;26.92;;
2868;SDS011;1442;47.448;8.582;2024-03-08T03:19:35;58.67;;;26.63;;
2868;SDS011;1442;47.448;8.582;2024-03-08T03:22:01;59.63;;;28.08;;
2868;SDS011;1442;47.448;8.582;2024-03-08T03:24:30;51.20;;;24.08;;
2868;SDS011;1442;47.448;8.582;2024-03-08T03:26:59;53.47;;;25.40;;
2868;SDS011;1442;47.448;8.582;2024-03-08T03:29:27;61.17;;;27.48;;
2868;SDS011;1442;47.448;8.582;2024-03-08T03:31:55;54.53;;;26.20;;
2868;SDS011;1442;47.448;8.582;2024-03-08T03:34:22;55.33;;;26.13;;
2868;SDS011;1442;47.448;8.582;2024-03-08T03:36:48;54.38;;;25.67;;
2868;SDS011;1442;47.448;8.582;2024-03-08T03:39:15;58.45;;;26.38;;
2868;SDS011;1442;47.448;8.582;2024-03-08T03:41:45;53.20;;;25.48;;
2868;SDS011;1442;47.448;8.582;2024-03-08T03:44:13;54.65;;;25.52;;
2868;SDS011;1442;47.448;8.582;2024-03-08T03:46:42;50.17;;;24.95;;
2868;SDS011;1442;47.448;8.582;2024-03-08T03:49:10;55.15;;;24.58;;
2868;SDS011;1442;47.448;8.582;2024-03-08T03:51:36;49.35;;;24.20;;
2868;SDS011;1442;47.448;8.582;2024-03-08T03:54:04;56.00;;;24.08;;
2868;SDS011;1442;47.448;8.582;2024-03-08T03:56:30;50.60;;;24.50;;
2868;SDS011;1442;47.448;8.582;2024-03-08T03:58:57;47.03;;;23.48;;
2868;SDS011;1442;47.448;8.582;2024-03-08T04:01:24;51.25;;;23.02;;
2868;SDS011;1442;47.448;8.582;2024-03-08T04:03:52;47.80;;;22.83;;
2868;SDS011;1442;47.448;8.582;2024-03-08T04:06:19;49.65;;;22.80;;
2868;SDS011;1442;47.448;8.582;2024-03-08T04:08:45;44.20;;;22.63;;
2868;SDS011;1442;47.448;8.582;2024-03-08T04:11:12;48.80;;;23.95;;
2868;SDS011;1442;47.448;8.582;2024-03-08T04:13:41;49.60;;;23.50;;
2868;SDS011;1442;47.448;8.582;2024-03-08T04:16:08;49.50;;;24.88;;
2868;SDS011;1442;47.448;8.582;2024-03-08T04:18:36;53.70;;;25.23;;
2868;SDS011;1442;47.448;8.582;2024-03-08T04:21:05;47.83;;;24.38;;
2868;SDS011;1442;47.448;8.582;2024-03-08T04:23:33;52.47;;;24.50;;
2868;SDS011;1442;47.448;8.582;2024-03-08T04:26:00;46.20;;;23.08;;
2868;SDS011;1442;47.448;8.582;2024-03-08T04:28:27;46.67;;;22.90;;
2868;SDS011;1442;47.448;8.582;2024-03-08T04:30:54;50.22;;;23.05;;
2868;SDS011;1442;47.448;8.582;2024-03-08T04:33:20;45.58;;;22.38;;
2868;SDS011;1442;47.448;8.582;2024-03-08T04:35:48;44.25;;;22.65;;
2868;SDS011;1442;47.448;8.582;2024-03-08T04:38:16;46.28;;;24.15;;
2868;SDS011;1442;47.448;8.582;2024-03-08T04:40:43;46.33;;;24.23;;
2868;SDS011;1442;47.448;8.582;2024-03-08T04:43:10;46.97;;;24.35;;
2868;SDS011;1442;47.448;8.582;2024-03-08T04:45:37;47.47;;;22.85;;
2868;SDS011;1442;47.448;8.582;2024-03-08T04:48:04;42.05;;;23.10;;
2868;SDS011;1442;47.448;8.582;2024-03-08T04:50:33;40.85;;;21.48;;
2868;SDS011;1442;47.448;8.582;2024-03-08T04:53:00;44.80;;;21.88;;
2868;SDS011;1442;47.448;8.582;2024-03-08T04:55:29;44.78;;;19.83;;
2868;SDS011;1442;47.448;8.582;2024-03-08T04:57:56;43.55;;;21.92;;
2868;SDS011;1442;47.448;8.582;2024-03-08T05:00:22;48.92;;;22.65;;
2868;SDS011;1442;47.448;8.582;2024-03-08T05:02:50;41.33;;;20.40;;
2868;SDS011;1442;47.448;8.582;2024-03-08T05:05:18;44.60;;;21.58;;
2868;SDS011;1442;47.448;8.582;2024-03-08T05:07:45;41.60;;;20.30;;
2868;SDS011;1442;47.448;8.582;2024-03-08T05:10:12;38.42;;;19.60;;
2868;SDS011;1442;47.448;8.582;2024-03-08T05:12:43;45.22;;;20.98;;
2868;SDS011;1442;47.448;8.582;2024-03-08T05:15:10;44.67;;;20.92;;
2868;SDS011;1442;47.448;8.582;2024-03-08T05:17:37;43.22;;;20.98;;
2868;SDS011;1442;47.448;8.582;2024-03-08T05:20:05;50.13;;;22.40;;
2868;SDS011;1442;47.448;8.582;2024-03-08T05:22:37;44.92;;;22.02;;
2868;SDS011;1442;47.448;8.582;2024-03-08T05:25:05;44.80;;;21.52;;
2868;SDS011;1442;47.448;8.582;2024-03-08T05:27:33;43.00;;;21.23;;
2868;SDS011;1442;47.448;8.582;2024-03-08T05:30:01;45.35;;;22.00;;
2868;SDS011;1442;47.448;8.582;2024-03-08T05:32:29;43.85;;;22.08;;
2868;SDS011;1442;47.448;8.582;2024-03-08T05:34:56;41.42;;;20.38;;
2868;SDS011;1442;47.448;8.582;2024-03-08T05:37:22;43.78;;;20.77;;
2868;SDS011;1442;47.448;8.582;2024-03-08T05:39:49;40.90;;;20.60;;
2868;SDS011;1442;47.448;8.582;2024-03-08T05:42:16;42.63;;;20.40;;
2868;SDS011;1442;47.448;8.582;2024-03-08T05:44:42;47.33;;;21.88;;
2868;SDS011;1442;47.448;8.582;2024-03-08T05:47:11;42.45;;;19.83;;
2868;SDS011;1442;47.448;8.582;2024-03-08T05:49:37;43.50;;;20.45;;
2868;SDS011;1442;47.448;8.582;2024-03-08T05:52:04;47.33;;;21.90;;
2868;SDS011;1442;47.448;8.582;2024-03-08T05:54:31;46.13;;;20.33;;
2868;SDS011;1442;47.448;8.582;2024-03-08T05:56:58;44.10;;;20.75;;
2868;SDS011;1442;47.448;8.582;2024-03-08T05:59:24;46.58;;;22.88;;
2868;SDS011;1442;47.448;8.582;2024-03-08T06:01:52;41.58;;;21.58;;
2868;SDS011;1442;47.448;8.582;2024-03-08T06:04:20;46.03;;;22.60;;
2868;SDS011;1442;47.448;8.582;2024-03-08T06:06:47;43.72;;;21.92;;
2868;SDS011;1442;47.448;8.582;2024-03-08T06:09:16;43.78;;;21.13;;
2868;SDS011;1442;47.448;8.582;2024-03-08T06:11:48;45.17;;;19.88;;
2868;SDS011;1442;47.448;8.582;2024-03-08T06:14:14;44.67;;;21.52;;
2868;SDS011;1442;47.448;8.582;2024-03-08T06:16:43;39.17;;;19.27;;
2868;SDS011;1442;47.448;8.582;2024-03-08T06:19:10;47.00;;;20.90;;
2868;SDS011;1442;47.448;8.582;2024-03-08T06:21:38;41.45;;;19.77;;
2868;SDS011;1442;47.448;8.582;2024-03-08T06:24:06;44.97;;;20.83;;
2868;SDS011;1442;47.448;8.582;2024-03-08T06:26:32;38.83;;;19.33;;
2868;SDS011;1442;47.448;8.582;2024-03-08T06:28:59;43.80;;;21.45;;
2868;SDS011;1442;47.448;8.582;2024-03-08T06:31:26;38.58;;;19.40;;
2868;SDS011;1442;47.448;8.582;2024-03-08T06:33:53;43.70;;;20.73;;
2868;SDS011;1442;47.448;8.582;2024-03-08T06:36:20;46.92;;;21.27;;
2868;SDS011;1442;47.448;8.582;2024-03-08T06:38:49;43.65;;;20.98;;
2868;SDS011;1442;47.448;8.582;2024-03-08T06:41:15;38.90;;;19.58;;
2868;SDS011;1442;47.448;8.582;2024-03-08T06:43:42;41.78;;;19.77;;
2868;SDS011;1442;47.448;8.582;2024-03-08T06:46:09;41.83;;;19.40;;
2868;SDS011;1442;47.448;8.582;2024-03-08T06:48:37;35.83;;;18.27;;
2868;SDS011;1442;47.448;8.582;2024-03-08T06:51:04;40.83;;;19.25;;
2868;SDS011;1442;47.448;8.582;2024-03-08T06:53:31;43.72;;;19.52;;
2868;SDS011;1442;47.448;8.582;2024-03-08T06:56:01;38.88;;;19.30;;
2868;SDS011;1442;47.448;8.582;2024-03-08T06:58:28;43.33;;;20.35;;
2868;SDS011;1442;47.448;8.582;2024-03-08T07:00:54;36.22;;;18.90;;
2868;SDS011;1442;47.448;8.582;2024-03-08T07:03:23;40.78;;;20.77;;
2868;SDS011;1442;47.448;8.582;2024-03-08T07:05:51;36.90;;;18.40;;
2868;SDS011;1442;47.448;8.582;2024-03-08T07:08:18;39.70;;;18.25;;
2868;SDS011;1442;47.448;8.582;2024-03-08T07:10:47;38.30;;;18.55;;
2868;SDS011;1442;47.448;8.582;2024-03-08T07:13:15;39.20;;;19.10;;
2868;SDS011;1442;47.448;8.582;2024-03-08T07:15:43;38.03;;;18.27;;
2868;SDS011;1442;47.448;8.582;2024-03-08T07:18:09;34.92;;;17.70;;
2868;SDS011;1442;47.448;8.582;2024-03-08T07:20:39;39.50;;;19.27;;
2868;SDS011;1442;47.448;8.582;2024-03-08T07:23:06;33.88;;;17.50;;
2868;SDS011;1442;47.448;8.582;2024-03-08T07:25:33;31.75;;;17.05;;
2868;SDS011;1442;47.448;8.582;2024-03-08T07:28:00;36.45;;;18.42;;
2868;SDS011;1442;47.448;8.582;2024-03-08T07:30:28;37.95;;;17.65;;
2868;SDS011;1442;47.448;8.582;2024-03-08T07:33:15;34.90;;;17.65;;
2868;SDS011;1442;47.448;8.582;2024-03-08T07:35:42;33.80;;;16.15;;
2868;SDS011;1442;47.448;8.582;2024-03-08T07:38:09;38.15;;;19.23;;
2868;SDS011;1442;47.448;8.582;2024-03-08T07:40:36;35.45;;;17.17;;
2868;SDS011;1442;47.448;8.582;2024-03-08T07:43:05;37.55;;;17.30;;
2868;SDS011;1442;47.448;8.582;2024-03-08T07:45:33;34.58;;;17.10;;
2868;SDS011;1442;47.448;8.582;2024-03-08T07:48:02;39.42;;;17.10;;
2868;SDS011;1442;47.448;8.582;2024-03-08T07:50:29;38.10;;;17.98;;
2868;SDS011;1442;47.448;8.582;2024-03-08T07:52:58;34.63;;;17.77;;
2868;SDS011;1442;47.448;8.582;2024-03-08T07:55:24;36.90;;;16.90;;
2868;SDS011;1442;47.448;8.582;2024-03-08T07:57:51;33.90;;;17.67;;
2868;SDS011;1442;47.448;8.582;2024-03-08T08:00:18;31.15;;;15.73;;
2868;SDS011;1442;47.448;8.582;2024-03-08T08:02:46;33.97;;;16.80;;
2868;SDS011;1442;47.448;8.582;2024-03-08T08:05:14;32.03;;;16.80;;
2868;SDS011;1442;47.448;8.582;2024-03-08T08:07:44;34.30;;;16.52;;
2868;SDS011;1442;47.448;8.582;2024-03-08T08:10:11;37.53;;;18.55;;
2868;SDS011;1442;47.448;8.582;2024-03-08T08:12:43;36.33;;;16.88;;
2868;SDS011;1442;47.448;8.582;2024-03-08T08:15:10;34.63;;;17.65;;
2868;SDS011;1442;47.448;8.582;2024-03-08T08:17:37;31.10;;;17.63;;
2868;SDS011;1442;47.448;8.582;2024-03-08T08:20:06;33.25;;;17.58;;
2868;SDS011;1442;47.448;8.582;2024-03-08T08:22:33;36.42;;;17.83;;
2868;SDS011;1442;47.448;8.582;2024-03-08T08:25:00;32.03;;;17.67;;
2868;SDS011;1442;47.448;8.582;2024-03-08T08:27:28;34.72;;;17.63;;
2868;SDS011;1442;47.448;8.582;2024-03-08T08:29:55;29.65;;;15.68;;
2868;SDS011;1442;47.448;8.582;2024-03-08T08:32:21;31.27;;;16.50;;
2868;SDS011;1442;47.448;8.582;2024-03-08T08:34:48;33.60;;;16.55;;
2868;SDS011;1442;47.448;8.582;2024-03-08T08:37:16;38.50;;;17.40;;
2868;SDS011;1442;47.448;8.582;2024-03-08T08:39:43;29.85;;;16.13;;
2868;SDS011;1442;47.448;8.582;2024-03-08T08:42:10;32.30;;;17.70;;
2868;SDS011;1442;47.448;8.582;2024-03-08T08:44:37;35.60;;;17.50;;
2868;SDS011;1442;47.448;8.582;2024-03-08T08:47:04;30.67;;;15.50;;
2868;SDS011;1442;47.448;8.582;2024-03-08T08:49:31;31.77;;;16.60;;
2868;SDS011;1442;47.448;8.582;2024-03-08T08:51:58;30.88;;;15.85;;
2868;SDS011;1442;47.448;8.582;2024-03-08T08:54:26;37.92;;;17.00;;
2868;SDS011;1442;47.448;8.582;2024-03-08T08:56:53;34.75;;;16.45;;
2868;SDS011;1442;47.448;8.582;2024-03-08T08:59:19;31.23;;;16.35;;
2868;SDS011;1442;47.448;8.582;2024-03-08T09:01:48;30.67;;;16.05;;
2868;SDS011;1442;47.448;8.582;2024-03-08T09:04:15;34.35;;;17.05;;
2868;SDS011;1442;47.448;8.582;2024-03-08T09:06:42;32.15;;;17.02;;
2868;SDS011;1442;47.448;8.582;2024-03-08T09:09:10;32.88;;;16.40;;
2868;SDS011;1442;47.448;8.582;2024-03-08T09:11:39;33.40;;;17.25;;
2868;SDS011;1442;47.448;8.582;2024-03-08T09:14:07;32.58;;;16.45;;
2868;SDS011;1442;47.448;8.582;2024-03-08T09:16:34;36.03;;;15.45;;
2868;SDS011;1442;47.448;8.582;2024-03-08T09:19:01;34.38;;;17.60;;
2868;SDS011;1442;47.448;8.582;2024-03-08T09:21:28;30.85;;;16.20;;
2868;SDS011;1442;47.448;8.582;2024-03-08T09:23:56;32.10;;;17.08;;
2868;SDS011;1442;47.448;8.582;2024-03-08T09:26:23;32.35;;;16.17;;
2868;SDS011;1442;47.448;8.582;2024-03-08T09:28:51;35.53;;;16.75;;
2868;SDS011;1442;47.448;8.582;2024-03-08T09:31:19;35.33;;;16.85;;
2868;SDS011;1442;47.448;8.582;2024-03-08T09:33:46;34.58;;;17.05;;
2868;SDS011;1442;47.448;8.582;2024-03-08T09:36:13;33.50;;;16.40;;
2868;SDS011;1442;47.448;8.582;2024-03-08T09:38:40;29.55;;;13.95;;
2868;SDS011;1442;47.448;8.582;2024-03-08T09:41:06;32.83;;;15.85;;
2868;SDS011;1442;47.448;8.582;2024-03-08T09:43:35;32.85;;;16.15;;
2868;SDS011;1442;47.448;8.582;2024-03-08T09:46:04;30.60;;;15.02;;
2868;SDS011;1442;47.448;8.582;2024-03-08T09:48:31;34.47;;;15.90;;
2868;SDS011;1442;47.448;8.582;2024-03-08T09:50:59;33.50;;;17.42;;
2868;SDS011;1442;47.448;8.582;2024-03-08T09:53:26;28.00;;;15.80;;
2868;SDS011;1442;47.448;8.582;2024-03-08T09:55:53;28.27;;;15.75;;
2868;SDS011;1442;47.448;8.582;2024-03-08T09:58:20;32.03;;;15.43;;
2868;SDS011;1442;47.448;8.582;2024-03-08T10:01:01;31.77;;;15.60;;
2868;SDS011;1442;47.448;8.582;2024-03-08T10:03:31;26.77;;;15.48;;
2868;SDS011;1442;47.448;8.582;2024-03-08T10:05:57;29.95;;;15.70;;
2868;SDS011;1442;47.448;8.582;2024-03-08T10:08:25;32.22;;;15.95;;
2868;SDS011;1442;47.448;8.582;2024-03-08T10:10:52;32.60;;;15.20;;
2868;SDS011;1442;47.448;8.582;2024-03-08T10:13:19;34.42;;;17.05;;
2868;SDS011;1442;47.448;8.582;2024-03-08T10:15:46;32.58;;;16.52;;
2868;SDS011;1442;47.448;8.582;2024-03-08T10:18:13;29.45;;;16.40;;
2868;SDS011;1442;47.448;8.582;2024-03-08T10:20:41;31.98;;;16.17;;
2868;SDS011;1442;47.448;8.582;2024-03-08T10:23:08;28.52;;;15.82;;
2868;SDS011;1442;47.448;8.582;2024-03-08T10:25:35;30.48;;;15.45;;
2868;SDS011;1442;47.448;8.582;2024-03-08T10:28:03;29.85;;;16.60;;
2868;SDS011;1442;47.448;8.582;2024-03-08T10:30:30;31.40;;;16.30;;
2868;SDS011;1442;47.448;8.582;2024-03-08T10:32:57;31.60;;;16.25;;
2868;SDS011;1442;47.448;8.582;2024-03-08T10:35:24;31.90;;;16.33;;
2868;SDS011;1442;47.448;8.582;2024-03-08T10:37:53;27.95;;;15.23;;
2868;SDS011;1442;47.448;8.582;2024-03-08T10:40:24;30.05;;;15.75;;
2868;SDS011;1442;47.448;8.582;2024-03-08T10:42:52;29.90;;;15.35;;
2868;SDS011;1442;47.448;8.582;2024-03-08T10:45:23;29.35;;;15.65;;
2868;SDS011;1442;47.448;8.582;2024-03-08T10:48:03;27.48;;;14.68;;
2868;SDS011;1442;47.448;8.582;2024-03-08T10:50:37;27.50;;;14.82;;
2868;SDS011;1442;47.448;8.582;2024-03-08T10:53:06;32.05;;;15.23;;
2868;SDS011;1442;47.448;8.582;2024-03-08T10:55:33;30.45;;;15.63;;
2868;SDS011;1442;47.448;8.582;2024-03-08T10:58:06;26.35;;;15.15;;
2868;SDS011;1442;47.448;8.582;2024-03-08T11:00:33;27.48;;;14.23;;
2868;SDS011;1442;47.448;8.582;2024-03-08T11:03:00;28.95;;;15.40;;
2868;SDS011;1442;47.448;8.582;2024-03-08T11:05:31;28.38;;;14.85;;
2868;SDS011;1442;47.448;8.582;2024-03-08T11:08:03;29.17;;;15.70;;
2868;SDS011;1442;47.448;8.582;2024-03-08T11:10:46;30.65;;;15.77;;
2868;SDS011;1442;47.448;8.582;2024-03-08T11:16:01;34.05;;;15.20;;
2868;SDS011;1442;47.448;8.582;2024-03-08T11:18:31;29.58;;;15.27;;
2868;SDS011;1442;47.448;8.582;2024-03-08T11:20:58;26.67;;;14.50;;
2868;SDS011;1442;47.448;8.582;2024-03-08T11:23:31;32.23;;;15.43;;
2868;SDS011;1442;47.448;8.582;2024-03-08T11:25:58;26.45;;;14.30;;
2868;SDS011;1442;47.448;8.582;2024-03-08T11:28:25;25.77;;;14.20;;
2868;SDS011;1442;47.448;8.582;2024-03-08T11:33:50;26.05;;;13.88;;
2868;SDS011;1442;47.448;8.582;2024-03-08T11:36:20;27.55;;;13.38;;
2868;SDS011;1442;47.448;8.582;2024-03-08T11:38:49;25.48;;;13.20;;
2868;SDS011;1442;47.448;8.582;2024-03-08T11:41:17;28.30;;;14.13;;
2868;SDS011;1442;47.448;8.582;2024-03-08T11:43:46;27.35;;;13.57;;
2868;SDS011;1442;47.448;8.582;2024-03-08T11:46:13;26.58;;;13.68;;
2868;SDS011;1442;47.448;8.582;2024-03-08T11:48:41;27.02;;;14.32;;
2868;SDS011;1442;47.448;8.582;2024-03-08T11:51:09;23.05;;;14.00;;
2868;SDS011;1442;47.448;8.582;2024-03-08T11:53:37;26.88;;;14.07;;
2868;SDS011;1442;47.448;8.582;2024-03-08T11:56:08;27.92;;;14.02;;
2868;SDS011;1442;47.448;8.582;2024-03-08T11:58:37;24.05;;;13.80;;
2868;SDS011;1442;47.448;8.582;2024-03-08T12:01:05;27.23;;;13.98;;
2868;SDS011;1442;47.448;8.582;2024-03-08T12:03:34;28.02;;;14.48;;
2868;SDS011;1442;47.448;8.582;2024-03-08T12:06:01;29.25;;;15.35;;
2868;SDS011;1442;47.448;8.582;2024-03-08T12:08:28;29.52;;;15.07;;
2868;SDS011;1442;47.448;8.582;2024-03-08T12:10:57;26.58;;;15.40;;
2868;SDS011;1442;47.448;8.582;2024-03-08T12:13:26;26.33;;;14.23;;
2868;SDS011;1442;47.448;8.582;2024-03-08T12:15:55;27.23;;;14.48;;
2868;SDS011;1442;47.448;8.582;2024-03-08T12:18:24;22.42;;;13.20;;
2868;SDS011;1442;47.448;8.582;2024-03-08T12:20:51;25.38;;;13.75;;
2868;SDS011;1442;47.448;8.582;2024-03-08T12:23:18;26.88;;;14.65;;
2868;SDS011;1442;47.448;8.582;2024-03-08T12:25:44;26.80;;;13.68;;
2868;SDS011;1442;47.448;8.582;2024-03-08T12:28:13;25.35;;;13.45;;
2868;SDS011;1442;47.448;8.582;2024-03-08T12:30:45;25.95;;;14.30;;
2868;SDS011;1442;47.448;8.582;2024-03-08T12:33:13;25.80;;;14.15;;
2868;SDS011;1442;47.448;8.582;2024-03-08T12:35:40;29.23;;;14.07;;
2868;SDS011;1442;47.448;8.582;2024-03-08T12:38:08;24.83;;;13.75;;
2868;SDS011;1442;47.448;8.582;2024-03-08T12:40:35;26.55;;;13.70;;
2868;SDS011;1442;47.448;8.582;2024-03-08T12:43:05;23.83;;;13.43;;
2868;SDS011;1442;47.448;8.582;2024-03-08T12:45:32;25.90;;;14.18;;
2868;SDS011;1442;47.448;8.582;2024-03-08T12:48:00;27.25;;;14.55;;
2868;SDS011;1442;47.448;8.582;2024-03-08T12:50:28;27.80;;;14.93;;
2868;SDS011;1442;47.448;8.582;2024-03-08T12:52:55;26.92;;;13.95;;
2868;SDS011;1442;47.448;8.582;2024-03-08T12:55:22;24.83;;;14.32;;
2868;SDS011;1442;47.448;8.582;2024-03-08T12:57:48;29.45;;;14.98;;
2868;SDS011;1442;47.448;8.582;2024-03-08T13:00:18;22.90;;;12.93;;
2868;SDS011;1442;47.448;8.582;2024-03-08T13:02:45;23.77;;;13.43;;
2868;SDS011;1442;47.448;8.582;2024-03-08T13:05:13;22.70;;;12.90;;
2868;SDS011;1442;47.448;8.582;2024-03-08T13:07:40;22.88;;;12.80;;
2868;SDS011;1442;47.448;8.582;2024-03-08T13:10:11;24.08;;;12.90;;
2868;SDS011;1442;47.448;8.582;2024-03-08T13:12:39;28.02;;;13.65;;
2868;SDS011;1442;47.448;8.582;2024-03-08T13:15:07;27.02;;;14.48;;
2868;SDS011;1442;47.448;8.582;2024-03-08T13:17:36;23.90;;;13.50;;
2868;SDS011;1442;47.448;8.582;2024-03-08T13:20:05;22.63;;;12.60;;
2868;SDS011;1442;47.448;8.582;2024-03-08T13:22:34;27.25;;;13.43;;
2868;SDS011;1442;47.448;8.582;2024-03-08T13:25:01;23.55;;;13.52;;
2868;SDS011;1442;47.448;8.582;2024-03-08T13:27:30;24.58;;;13.95;;
2868;SDS011;1442;47.448;8.582;2024-03-08T13:29:56;24.83;;;13.20;;
2868;SDS011;1442;47.448;8.582;2024-03-08T13:32:23;25.48;;;13.52;;
2868;SDS011;1442;47.448;8.582;2024-03-08T13:34:51;26.60;;;14.20;;
2868;SDS011;1442;47.448;8.582;2024-03-08T13:37:19;23.27;;;13.95;;
2868;SDS011;1442;47.448;8.582;2024-03-08T13:39:47;24.02;;;13.65;;
2868;SDS011;1442;47.448;8.582;2024-03-08T13:42:14;20.92;;;11.43;;
2868;SDS011;1442;47.448;8.582;2024-03-08T13:44:44;25.83;;;13.10;;
2868;SDS011;1442;47.448;8.582;2024-03-08T13:47:12;23.30;;;13.30;;
2868;SDS011;1442;47.448;8.582;2024-03-08T13:49:39;23.27;;;13.68;;
2868;SDS011;1442;47.448;8.582;2024-03-08T13:52:06;22.30;;;13.07;;
2868;SDS011;1442;47.448;8.582;2024-03-08T13:54:34;23.27;;;12.68;;
2868;SDS011;1442;47.448;8.582;2024-03-08T13:57:02;25.33;;;13.25;;
2868;SDS011;1442;47.448;8.582;2024-03-08T13:59:29;24.73;;;13.23;;
2868;SDS011;1442;47.448;8.582;2024-03-08T14:01:55;20.33;;;11.80;;
2868;SDS011;1442;47.448;8.582;2024-03-08T14:04:23;23.08;;;12.48;;
2868;SDS011;1442;47.448;8.582;2024-03-08T14:06:51;26.67;;;12.95;;
2868;SDS011;1442;47.448;8.582;2024-03-08T14:09:21;21.45;;;11.90;;
2868;SDS011;1442;47.448;8.582;2024-03-08T14:11:49;23.13;;;12.63;;
2868;SDS011;1442;47.448;8.582;2024-03-08T14:14:20;21.77;;;12.00;;
2868;SDS011;1442;47.448;8.582;2024-03-08T14:16:48;20.02;;;11.27;;
2868;SDS011;1442;47.448;8.582;2024-03-08T14:19:17;25.25;;;12.88;;
2868;SDS011;1442;47.448;8.582;2024-03-08T14:21:44;24.52;;;12.13;;
2868;SDS011;1442;47.448;8.582;2024-03-08T14:24:12;18.00;;;11.30;;
2868;SDS011;1442;47.448;8.582;2024-03-08T14:26:40;22.17;;;11.75;;
2868;SDS011;1442;47.448;8.582;2024-03-08T14:29:07;20.40;;;11.63;;
2868;SDS011;1442;47.448;8.582;2024-03-08T14:31:36;23.35;;;13.45;;
2868;SDS011;1442;47.448;8.582;2024-03-08T14:34:03;23.35;;;12.75;;
2868;SDS011;1442;47.448;8.582;2024-03-08T14:36:30;24.23;;;11.85;;
2868;SDS011;1442;47.448;8.582;2024-03-08T14:38:56;20.35;;;11.40;;
2868;SDS011;1442;47.448;8.582;2024-03-08T14:41:23;20.55;;;11.68;;
2868;SDS011;1442;47.448;8.582;2024-03-08T14:43:51;18.02;;;10.50;;
2868;SDS011;1442;47.448;8.582;2024-03-08T14:46:18;17.90;;;11.65;;
2868;SDS011;1442;47.448;8.582;2024-03-08T14:48:47;20.02;;;11.27;;
2868;SDS011;1442;47.448;8.582;2024-03-08T14:51:14;23.67;;;13.23;;
2868;SDS011;1442;47.448;8.582;2024-03-08T14:53:40;20.85;;;11.35;;
2868;SDS011;1442;47.448;8.582;2024-03-08T14:56:07;19.48;;;12.05;;